sensor_id;sensor_type;location;lat;lon;timestamp;P1;durP1;ratioP1;P2;durP2;ratioP2
23722;SDS011;12042;52.136;5.584;2022-10-17T06:42:16;17.60;;;14.32;;
23722;SDS011;12042;52.136;5.584;2022-10-17T06:44:42;30.05;;;14.95;;
23722;SDS011;12042;52.136;5.584;2022-10-17T06:47:08;19.67;;;15.02;;
23722;SDS011;12042;52.136;5.584;2022-10-17T06:49:34;16.70;;;14.93;;
23722;SDS011;12042;52.136;5.584;2022-10-17T06:51:59;15.65;;;14.00;;
23722;SDS011;12042;52.136;5.584;2022-10-17T06:54:25;15.85;;;14.20;;
23722;SDS011;12042;52.136;5.584;2022-10-17T06:56:52;18.42;;;13.93;;
23722;SDS011;12042;52.136;5.584;2022-10-17T06:59:17;19.40;;;13.85;;
23722;SDS011;12042;52.136;5.584;2022-10-17T07:01:43;16.52;;;14.40;;
23722;SDS011;12042;52.136;5.584;2022-10-17T07:04:09;17.58;;;14.00;;
23722;SDS011;12042;52.136;5.584;2022-10-17T07:06:34;17.55;;;13.32;;
23722;SDS011;12042;52.136;5.584;2022-10-17T07:09:00;18.05;;;13.80;;
23722;SDS011;12042;52.136;5.584;2022-10-17T07:11:26;18.63;;;14.02;;
23722;SDS011;12042;52.136;5.584;2022-10-17T07:13:52;18.55;;;14.05;;
23722;SDS011;12042;52.136;5.584;2022-10-17T07:16:18;16.52;;;13.50;;
23722;SDS011;12042;52.136;5.584;2022-10-17T07:18:47;18.67;;;14.00;;
23722;SDS011;12042;52.136;5.584;2022-10-17T07:21:13;16.48;;;14.10;;
23722;SDS011;12042;52.136;5.584;2022-10-17T07:23:39;16.77;;;13.45;;
23722;SDS011;12042;52.136;5.584;2022-10-17T07:26:06;15.50;;;13.40;;
23722;SDS011;12042;52.136;5.584;2022-10-17T07:28:37;16.73;;;13.80;;
23722;SDS011;12042;52.136;5.584;2022-10-17T07:31:05;16.35;;;13.07;;
23722;SDS011;12042;52.136;5.584;2022-10-17T07:33:32;16.23;;;13.13;;
23722;SDS011;12042;52.136;5.584;2022-10-17T07:35:58;15.27;;;12.95;;
23722;SDS011;12042;52.136;5.584;2022-10-17T07:38:26;16.50;;;13.02;;
23722;SDS011;12042;52.136;5.584;2022-10-17T07:40:53;15.88;;;13.43;;
23722;SDS011;12042;52.136;5.584;2022-10-17T07:43:23;18.55;;;13.82;;
23722;SDS011;12042;52.136;5.584;2022-10-17T07:45:50;17.38;;;13.43;;
23722;SDS011;12042;52.136;5.584;2022-10-17T07:48:16;14.35;;;12.88;;
23722;SDS011;12042;52.136;5.584;2022-10-17T07:50:42;15.82;;;13.45;;
23722;SDS011;12042;52.136;5.584;2022-10-17T07:53:08;16.63;;;13.25;;
23722;SDS011;12042;52.136;5.584;2022-10-17T07:55:35;17.10;;;13.52;;
23722;SDS011;12042;52.136;5.584;2022-10-17T07:58:01;13.90;;;12.60;;
23722;SDS011;12042;52.136;5.584;2022-10-17T08:00:27;14.80;;;12.98;;
23722;SDS011;12042;52.136;5.584;2022-10-17T08:02:53;14.68;;;12.85;;
23722;SDS011;12042;52.136;5.584;2022-10-17T08:05:18;17.85;;;13.50;;
23722;SDS011;12042;52.136;5.584;2022-10-17T08:07:44;15.50;;;12.73;;
23722;SDS011;12042;52.136;5.584;2022-10-17T08:10:10;15.27;;;13.38;;
23722;SDS011;12042;52.136;5.584;2022-10-17T08:12:37;16.95;;;13.75;;
23722;SDS011;12042;52.136;5.584;2022-10-17T08:15:03;17.83;;;13.60;;
23722;SDS011;12042;52.136;5.584;2022-10-17T08:17:30;14.88;;;13.48;;
23722;SDS011;12042;52.136;5.584;2022-10-17T08:19:55;18.63;;;13.35;;
23722;SDS011;12042;52.136;5.584;2022-10-17T08:22:21;16.70;;;13.85;;
23722;SDS011;12042;52.136;5.584;2022-10-17T08:24:46;16.55;;;13.98;;
23722;SDS011;12042;52.136;5.584;2022-10-17T08:27:12;17.58;;;14.45;;
23722;SDS011;12042;52.136;5.584;2022-10-17T08:29:39;15.27;;;13.77;;
23722;SDS011;12042;52.136;5.584;2022-10-17T08:32:05;22.30;;;14.55;;
23722;SDS011;12042;52.136;5.584;2022-10-17T08:34:33;17.42;;;14.20;;
23722;SDS011;12042;52.136;5.584;2022-10-17T08:36:58;19.40;;;13.80;;
23722;SDS011;12042;52.136;5.584;2022-10-17T08:39:24;18.95;;;15.10;;
23722;SDS011;12042;52.136;5.584;2022-10-17T08:42:05;16.15;;;14.38;;
23722;SDS011;12042;52.136;5.584;2022-10-17T08:47:47;17.95;;;15.48;;
23722;SDS011;12042;52.136;5.584;2022-10-17T08:50:28;19.02;;;15.70;;
23722;SDS011;12042;52.136;5.584;2022-10-17T08:52:57;19.88;;;15.85;;
23722;SDS011;12042;52.136;5.584;2022-10-17T08:55:36;17.70;;;15.52;;
23722;SDS011;12042;52.136;5.584;2022-10-17T08:58:14;20.30;;;15.60;;
23722;SDS011;12042;52.136;5.584;2022-10-17T09:00:50;20.50;;;16.20;;
23722;SDS011;12042;52.136;5.584;2022-10-17T09:05:55;20.80;;;16.40;;
23722;SDS011;12042;52.136;5.584;2022-10-17T09:11:21;19.27;;;16.27;;
23722;SDS011;12042;52.136;5.584;2022-10-17T09:13:55;20.88;;;17.50;;
23722;SDS011;12042;52.136;5.584;2022-10-17T09:16:46;22.17;;;16.00;;
23722;SDS011;12042;52.136;5.584;2022-10-17T09:19:30;20.45;;;17.52;;
23722;SDS011;12042;52.136;5.584;2022-10-17T09:22:09;20.05;;;17.38;;
23722;SDS011;12042;52.136;5.584;2022-10-17T09:27:34;21.52;;;17.10;;
23722;SDS011;12042;52.136;5.584;2022-10-17T09:32:57;21.02;;;17.65;;
23722;SDS011;12042;52.136;5.584;2022-10-17T09:35:23;26.35;;;18.48;;
23722;SDS011;12042;52.136;5.584;2022-10-17T09:37:51;25.15;;;19.02;;
23722;SDS011;12042;52.136;5.584;2022-10-17T09:40:21;21.27;;;17.35;;
23722;SDS011;12042;52.136;5.584;2022-10-17T09:42:51;20.38;;;17.88;;
23722;SDS011;12042;52.136;5.584;2022-10-17T09:45:19;21.52;;;18.63;;
23722;SDS011;12042;52.136;5.584;2022-10-17T09:50:26;24.13;;;18.05;;
23722;SDS011;12042;52.136;5.584;2022-10-17T09:52:54;23.00;;;18.70;;
23722;SDS011;12042;52.136;5.584;2022-10-17T09:58:05;28.55;;;20.48;;
23722;SDS011;12042;52.136;5.584;2022-10-17T10:00:39;22.65;;;18.85;;
23722;SDS011;12042;52.136;5.584;2022-10-17T10:03:07;22.73;;;18.33;;
23722;SDS011;12042;52.136;5.584;2022-10-17T10:05:34;24.33;;;18.92;;
23722;SDS011;12042;52.136;5.584;2022-10-17T10:08:03;22.92;;;18.98;;
23722;SDS011;12042;52.136;5.584;2022-10-17T10:10:30;27.45;;;20.63;;
23722;SDS011;12042;52.136;5.584;2022-10-17T10:13:04;23.23;;;19.10;;
23722;SDS011;12042;52.136;5.584;2022-10-17T10:18:26;23.83;;;19.92;;
23722;SDS011;12042;52.136;5.584;2022-10-17T10:24:03;24.20;;;20.52;;
23722;SDS011;12042;52.136;5.584;2022-10-17T10:26:45;25.65;;;20.42;;
23722;SDS011;12042;52.136;5.584;2022-10-17T10:32:20;26.80;;;21.08;;
23722;SDS011;12042;52.136;5.584;2022-10-17T10:34:49;22.50;;;19.50;;
23722;SDS011;12042;52.136;5.584;2022-10-17T10:39:54;22.40;;;18.90;;
23722;SDS011;12042;52.136;5.584;2022-10-17T10:42:33;23.38;;;19.75;;
23722;SDS011;12042;52.136;5.584;2022-10-17T10:45:12;22.60;;;19.38;;
23722;SDS011;12042;52.136;5.584;2022-10-17T10:47:39;22.10;;;18.10;;
23722;SDS011;12042;52.136;5.584;2022-10-17T10:50:20;22.15;;;18.42;;
23722;SDS011;12042;52.136;5.584;2022-10-17T10:53:00;19.13;;;17.00;;
23722;SDS011;12042;52.136;5.584;2022-10-17T10:55:31;17.42;;;15.52;;
23722;SDS011;12042;52.136;5.584;2022-10-17T10:58:06;21.13;;;17.13;;
23722;SDS011;12042;52.136;5.584;2022-10-17T11:01:00;22.48;;;17.33;;
23722;SDS011;12042;52.136;5.584;2022-10-17T11:03:35;17.88;;;15.73;;
23722;SDS011;12042;52.136;5.584;2022-10-17T11:06:26;20.30;;;16.63;;
23722;SDS011;12042;52.136;5.584;2022-10-17T11:12:11;20.00;;;14.93;;
23722;SDS011;12042;52.136;5.584;2022-10-17T11:20:11;19.73;;;15.30;;
23722;SDS011;12042;52.136;5.584;2022-10-17T11:22:47;17.35;;;15.60;;
23722;SDS011;12042;52.136;5.584;2022-10-17T11:28:01;17.17;;;15.27;;
23722;SDS011;12042;52.136;5.584;2022-10-17T11:30:38;17.25;;;15.32;;
23722;SDS011;12042;52.136;5.584;2022-10-17T11:36:00;16.80;;;14.95;;
23722;SDS011;12042;52.136;5.584;2022-10-17T11:38:42;15.82;;;14.07;;
23722;SDS011;12042;52.136;5.584;2022-10-17T11:41:17;20.17;;;14.98;;
23722;SDS011;12042;52.136;5.584;2022-10-17T11:43:49;15.68;;;14.02;;
23722;SDS011;12042;52.136;5.584;2022-10-17T11:46:20;15.23;;;13.73;;
23722;SDS011;12042;52.136;5.584;2022-10-17T11:51:53;15.05;;;13.45;;
23722;SDS011;12042;52.136;5.584;2022-10-17T11:54:27;15.23;;;13.32;;
23722;SDS011;12042;52.136;5.584;2022-10-17T12:03:00;16.63;;;13.50;;
23722;SDS011;12042;52.136;5.584;2022-10-17T12:05:23;16.23;;;13.77;;
23722;SDS011;12042;52.136;5.584;2022-10-17T12:11:00;15.18;;;13.57;;
23722;SDS011;12042;52.136;5.584;2022-10-17T12:18:44;16.13;;;14.25;;
23722;SDS011;12042;52.136;5.584;2022-10-17T12:21:15;15.75;;;13.30;;
23722;SDS011;12042;52.136;5.584;2022-10-17T12:23:40;14.55;;;13.25;;
23722;SDS011;12042;52.136;5.584;2022-10-17T12:26:24;15.63;;;14.10;;
23722;SDS011;12042;52.136;5.584;2022-10-17T12:28:51;14.38;;;12.88;;
23722;SDS011;12042;52.136;5.584;2022-10-17T12:46:54;16.55;;;14.93;;
23722;SDS011;12042;52.136;5.584;2022-10-17T12:49:37;15.88;;;14.27;;
23722;SDS011;12042;52.136;5.584;2022-10-17T12:57:39;15.15;;;13.65;;
23722;SDS011;12042;52.136;5.584;2022-10-17T13:00:41;15.57;;;14.02;;
23722;SDS011;12042;52.136;5.584;2022-10-17T13:03:18;15.02;;;13.68;;
23722;SDS011;12042;52.136;5.584;2022-10-17T13:06:05;15.00;;;13.43;;
23722;SDS011;12042;52.136;5.584;2022-10-17T13:08:35;15.93;;;14.23;;
23722;SDS011;12042;52.136;5.584;2022-10-17T13:11:03;15.90;;;14.38;;
23722;SDS011;12042;52.136;5.584;2022-10-17T13:16:06;16.05;;;14.55;;
23722;SDS011;12042;52.136;5.584;2022-10-17T13:18:32;15.50;;;14.10;;
23722;SDS011;12042;52.136;5.584;2022-10-17T13:21:06;15.43;;;13.95;;
23722;SDS011;12042;52.136;5.584;2022-10-17T13:23:39;16.30;;;14.75;;
23722;SDS011;12042;52.136;5.584;2022-10-17T13:26:12;19.42;;;15.25;;
23722;SDS011;12042;52.136;5.584;2022-10-17T13:28:39;18.00;;;16.15;;
23722;SDS011;12042;52.136;5.584;2022-10-17T13:31:06;16.60;;;14.90;;
23722;SDS011;12042;52.136;5.584;2022-10-17T13:33:46;16.02;;;14.35;;
23722;SDS011;12042;52.136;5.584;2022-10-17T13:36:13;16.42;;;14.85;;
23722;SDS011;12042;52.136;5.584;2022-10-17T13:38:43;16.90;;;15.13;;
23722;SDS011;12042;52.136;5.584;2022-10-17T13:41:10;17.55;;;15.00;;
23722;SDS011;12042;52.136;5.584;2022-10-17T13:43:38;15.93;;;14.27;;
23722;SDS011;12042;52.136;5.584;2022-10-17T13:46:04;15.63;;;13.88;;
23722;SDS011;12042;52.136;5.584;2022-10-17T13:48:32;13.90;;;12.45;;
23722;SDS011;12042;52.136;5.584;2022-10-17T13:51:01;14.82;;;13.45;;
23722;SDS011;12042;52.136;5.584;2022-10-17T13:53:32;15.02;;;13.40;;
23722;SDS011;12042;52.136;5.584;2022-10-17T13:56:01;15.35;;;13.93;;
23722;SDS011;12042;52.136;5.584;2022-10-17T13:58:54;14.40;;;13.00;;
23722;SDS011;12042;52.136;5.584;2022-10-17T14:01:24;12.93;;;11.80;;
23722;SDS011;12042;52.136;5.584;2022-10-17T14:03:51;14.27;;;12.75;;
23722;SDS011;12042;52.136;5.584;2022-10-17T14:08:47;14.98;;;13.48;;
23722;SDS011;12042;52.136;5.584;2022-10-17T14:11:22;14.02;;;12.57;;
23722;SDS011;12042;52.136;5.584;2022-10-17T14:13:54;13.88;;;12.07;;
23722;SDS011;12042;52.136;5.584;2022-10-17T14:16:21;13.38;;;12.10;;
23722;SDS011;12042;52.136;5.584;2022-10-17T14:18:49;13.63;;;12.30;;
23722;SDS011;12042;52.136;5.584;2022-10-17T14:21:22;12.90;;;11.75;;
23722;SDS011;12042;52.136;5.584;2022-10-17T14:23:50;12.68;;;11.48;;
23722;SDS011;12042;52.136;5.584;2022-10-17T14:28:46;11.57;;;10.57;;
23722;SDS011;12042;52.136;5.584;2022-10-17T14:31:21;11.88;;;10.95;;
23722;SDS011;12042;52.136;5.584;2022-10-17T14:33:49;11.52;;;10.63;;
23722;SDS011;12042;52.136;5.584;2022-10-17T14:36:16;11.52;;;10.43;;
23722;SDS011;12042;52.136;5.584;2022-10-17T14:38:44;11.55;;;10.55;;
23722;SDS011;12042;52.136;5.584;2022-10-17T14:41:18;11.98;;;10.77;;
23722;SDS011;12042;52.136;5.584;2022-10-17T14:43:53;11.98;;;10.40;;
23722;SDS011;12042;52.136;5.584;2022-10-17T14:46:23;13.23;;;11.45;;
23722;SDS011;12042;52.136;5.584;2022-10-17T14:48:56;11.80;;;10.68;;
23722;SDS011;12042;52.136;5.584;2022-10-17T14:51:27;12.98;;;11.70;;
23722;SDS011;12042;52.136;5.584;2022-10-17T14:56:42;12.30;;;11.10;;
23722;SDS011;12042;52.136;5.584;2022-10-17T14:59:15;11.13;;;9.95;;
23722;SDS011;12042;52.136;5.584;2022-10-17T15:01:46;12.60;;;11.38;;
23722;SDS011;12042;52.136;5.584;2022-10-17T15:04:13;12.48;;;11.43;;
23722;SDS011;12042;52.136;5.584;2022-10-17T15:06:38;12.55;;;11.32;;
23722;SDS011;12042;52.136;5.584;2022-10-17T15:09:04;11.55;;;10.70;;
23722;SDS011;12042;52.136;5.584;2022-10-17T15:11:30;12.70;;;11.60;;
23722;SDS011;12042;52.136;5.584;2022-10-17T15:13:56;13.18;;;11.98;;
23722;SDS011;12042;52.136;5.584;2022-10-17T15:16:25;12.52;;;11.23;;
23722;SDS011;12042;52.136;5.584;2022-10-17T15:18:54;12.35;;;11.25;;
23722;SDS011;12042;52.136;5.584;2022-10-17T15:21:20;12.80;;;11.55;;
23722;SDS011;12042;52.136;5.584;2022-10-17T15:23:47;12.65;;;11.43;;
23722;SDS011;12042;52.136;5.584;2022-10-17T15:26:15;12.30;;;10.98;;
23722;SDS011;12042;52.136;5.584;2022-10-17T15:28:44;13.32;;;10.82;;
23722;SDS011;12042;52.136;5.584;2022-10-17T15:31:12;13.38;;;11.73;;
23722;SDS011;12042;52.136;5.584;2022-10-17T15:33:38;13.20;;;11.05;;
23722;SDS011;12042;52.136;5.584;2022-10-17T15:36:04;12.98;;;11.73;;
23722;SDS011;12042;52.136;5.584;2022-10-17T15:38:42;12.77;;;11.38;;
23722;SDS011;12042;52.136;5.584;2022-10-17T15:41:08;12.80;;;11.50;;
23722;SDS011;12042;52.136;5.584;2022-10-17T15:43:34;12.73;;;11.43;;
23722;SDS011;12042;52.136;5.584;2022-10-17T15:46:00;12.25;;;11.18;;
23722;SDS011;12042;52.136;5.584;2022-10-17T15:48:27;13.13;;;11.73;;
23722;SDS011;12042;52.136;5.584;2022-10-17T15:50:54;12.52;;;11.15;;
23722;SDS011;12042;52.136;5.584;2022-10-17T15:53:20;13.82;;;11.65;;
23722;SDS011;12042;52.136;5.584;2022-10-17T15:55:46;14.25;;;11.85;;
23722;SDS011;12042;52.136;5.584;2022-10-17T15:58:15;12.00;;;10.80;;
23722;SDS011;12042;52.136;5.584;2022-10-17T16:00:42;14.25;;;10.95;;
23722;SDS011;12042;52.136;5.584;2022-10-17T16:03:08;13.88;;;11.15;;
23722;SDS011;12042;52.136;5.584;2022-10-17T16:05:34;11.85;;;10.85;;
23722;SDS011;12042;52.136;5.584;2022-10-17T16:07:59;12.73;;;11.52;;
23722;SDS011;12042;52.136;5.584;2022-10-17T16:10:25;15.10;;;12.23;;
23722;SDS011;12042;52.136;5.584;2022-10-17T16:12:51;12.98;;;11.73;;
23722;SDS011;12042;52.136;5.584;2022-10-17T16:17:47;13.55;;;12.25;;
23722;SDS011;12042;52.136;5.584;2022-10-17T16:20:14;13.23;;;12.02;;
23722;SDS011;12042;52.136;5.584;2022-10-17T16:22:41;13.55;;;12.25;;
23722;SDS011;12042;52.136;5.584;2022-10-17T16:27:48;15.00;;;12.50;;
23722;SDS011;12042;52.136;5.584;2022-10-17T16:30:16;15.82;;;13.15;;
23722;SDS011;12042;52.136;5.584;2022-10-17T16:32:42;14.07;;;11.75;;
23722;SDS011;12042;52.136;5.584;2022-10-17T16:35:09;12.82;;;11.60;;
23722;SDS011;12042;52.136;5.584;2022-10-17T16:37:40;13.00;;;11.98;;
23722;SDS011;12042;52.136;5.584;2022-10-17T16:40:05;14.07;;;12.57;;
23722;SDS011;12042;52.136;5.584;2022-10-17T16:42:31;16.88;;;12.15;;
23722;SDS011;12042;52.136;5.584;2022-10-17T16:44:57;13.68;;;12.50;;
23722;SDS011;12042;52.136;5.584;2022-10-17T16:47:22;14.45;;;13.05;;
23722;SDS011;12042;52.136;5.584;2022-10-17T16:49:48;18.42;;;13.32;;
23722;SDS011;12042;52.136;5.584;2022-10-17T16:52:13;18.08;;;13.40;;
23722;SDS011;12042;52.136;5.584;2022-10-17T16:54:39;14.13;;;12.73;;
23722;SDS011;12042;52.136;5.584;2022-10-17T16:57:05;16.17;;;13.27;;
23722;SDS011;12042;52.136;5.584;2022-10-17T16:59:30;13.35;;;12.05;;
23722;SDS011;12042;52.136;5.584;2022-10-17T17:01:56;16.35;;;13.98;;
23722;SDS011;12042;52.136;5.584;2022-10-17T17:04:21;22.08;;;14.23;;
23722;SDS011;12042;52.136;5.584;2022-10-17T17:06:47;15.27;;;13.60;;
23722;SDS011;12042;52.136;5.584;2022-10-17T17:09:13;15.35;;;13.85;;
23722;SDS011;12042;52.136;5.584;2022-10-17T17:11:38;21.20;;;14.57;;
23722;SDS011;12042;52.136;5.584;2022-10-17T17:14:04;17.63;;;14.45;;
23722;SDS011;12042;52.136;5.584;2022-10-17T17:16:31;16.15;;;14.43;;
23722;SDS011;12042;52.136;5.584;2022-10-17T17:19:07;17.00;;;14.32;;
23722;SDS011;12042;52.136;5.584;2022-10-17T17:21:35;14.57;;;13.10;;
23722;SDS011;12042;52.136;5.584;2022-10-17T17:24:01;17.45;;;13.95;;
23722;SDS011;12042;52.136;5.584;2022-10-17T17:26:29;17.23;;;14.23;;
23722;SDS011;12042;52.136;5.584;2022-10-17T17:28:56;15.90;;;13.93;;
23722;SDS011;12042;52.136;5.584;2022-10-17T17:31:25;17.05;;;13.95;;
23722;SDS011;12042;52.136;5.584;2022-10-17T17:33:52;15.32;;;13.82;;
23722;SDS011;12042;52.136;5.584;2022-10-17T17:36:19;15.63;;;14.02;;
23722;SDS011;12042;52.136;5.584;2022-10-17T17:38:46;15.27;;;13.88;;
23722;SDS011;12042;52.136;5.584;2022-10-17T17:41:13;16.10;;;14.07;;
23722;SDS011;12042;52.136;5.584;2022-10-17T17:43:41;16.90;;;14.07;;
23722;SDS011;12042;52.136;5.584;2022-10-17T17:46:07;17.73;;;14.27;;
23722;SDS011;12042;52.136;5.584;2022-10-17T17:48:35;16.17;;;14.43;;
23722;SDS011;12042;52.136;5.584;2022-10-17T17:51:05;15.85;;;14.18;;
23722;SDS011;12042;52.136;5.584;2022-10-17T17:53:32;16.95;;;14.48;;
23722;SDS011;12042;52.136;5.584;2022-10-17T17:58:31;18.42;;;14.82;;
23722;SDS011;12042;52.136;5.584;2022-10-17T18:00:58;23.35;;;15.80;;
23722;SDS011;12042;52.136;5.584;2022-10-17T18:03:24;19.48;;;16.42;;
23722;SDS011;12042;52.136;5.584;2022-10-17T18:05:50;20.35;;;16.65;;
23722;SDS011;12042;52.136;5.584;2022-10-17T18:08:15;16.75;;;15.02;;
23722;SDS011;12042;52.136;5.584;2022-10-17T18:10:45;16.73;;;14.93;;
23722;SDS011;12042;52.136;5.584;2022-10-17T18:13:18;19.23;;;15.68;;
23722;SDS011;12042;52.136;5.584;2022-10-17T18:15:43;17.73;;;15.80;;
23722;SDS011;12042;52.136;5.584;2022-10-17T18:18:10;19.45;;;16.40;;
23722;SDS011;12042;52.136;5.584;2022-10-17T18:20:42;22.75;;;17.77;;
23722;SDS011;12042;52.136;5.584;2022-10-17T18:23:08;18.92;;;17.02;;
23722;SDS011;12042;52.136;5.584;2022-10-17T18:25:34;23.23;;;18.08;;
23722;SDS011;12042;52.136;5.584;2022-10-17T18:28:01;22.92;;;19.25;;
23722;SDS011;12042;52.136;5.584;2022-10-17T18:30:27;27.27;;;19.88;;
23722;SDS011;12042;52.136;5.584;2022-10-17T18:32:53;21.52;;;19.10;;
23722;SDS011;12042;52.136;5.584;2022-10-17T18:35:18;24.92;;;20.38;;
23722;SDS011;12042;52.136;5.584;2022-10-17T18:37:44;22.10;;;19.40;;
23722;SDS011;12042;52.136;5.584;2022-10-17T18:40:09;19.85;;;17.85;;
23722;SDS011;12042;52.136;5.584;2022-10-17T18:42:35;21.77;;;18.73;;
23722;SDS011;12042;52.136;5.584;2022-10-17T18:45:00;22.77;;;19.88;;
23722;SDS011;12042;52.136;5.584;2022-10-17T18:47:29;24.98;;;20.50;;
23722;SDS011;12042;52.136;5.584;2022-10-17T18:49:55;26.05;;;22.15;;
23722;SDS011;12042;52.136;5.584;2022-10-17T18:52:21;28.67;;;21.02;;
23722;SDS011;12042;52.136;5.584;2022-10-17T18:54:48;22.10;;;19.52;;
23722;SDS011;12042;52.136;5.584;2022-10-17T18:57:14;21.00;;;18.77;;
23722;SDS011;12042;52.136;5.584;2022-10-17T18:59:39;28.23;;;21.83;;
23722;SDS011;12042;52.136;5.584;2022-10-17T19:02:05;24.27;;;21.42;;
23722;SDS011;12042;52.136;5.584;2022-10-17T19:04:31;26.05;;;21.00;;
23722;SDS011;12042;52.136;5.584;2022-10-17T19:06:57;26.48;;;21.73;;
23722;SDS011;12042;52.136;5.584;2022-10-17T19:09:22;28.52;;;23.00;;
23722;SDS011;12042;52.136;5.584;2022-10-17T19:11:48;27.23;;;20.70;;
23722;SDS011;12042;52.136;5.584;2022-10-17T19:14:14;27.08;;;21.90;;
23722;SDS011;12042;52.136;5.584;2022-10-17T19:16:41;25.27;;;22.58;;
23722;SDS011;12042;52.136;5.584;2022-10-17T19:21:41;25.27;;;21.52;;
23722;SDS011;12042;52.136;5.584;2022-10-17T19:24:10;25.88;;;20.98;;
23722;SDS011;12042;52.136;5.584;2022-10-17T19:26:41;22.90;;;20.08;;
23722;SDS011;12042;52.136;5.584;2022-10-17T19:29:08;21.05;;;18.95;;
23722;SDS011;12042;52.136;5.584;2022-10-17T19:31:38;22.75;;;20.30;;
23722;SDS011;12042;52.136;5.584;2022-10-17T19:34:06;22.00;;;19.48;;
23722;SDS011;12042;52.136;5.584;2022-10-17T19:36:32;20.52;;;18.25;;
23722;SDS011;12042;52.136;5.584;2022-10-17T19:39:03;20.13;;;17.67;;
23722;SDS011;12042;52.136;5.584;2022-10-17T19:41:31;21.25;;;19.05;;
23722;SDS011;12042;52.136;5.584;2022-10-17T19:43:58;21.15;;;18.88;;
23722;SDS011;12042;52.136;5.584;2022-10-17T19:46:24;21.38;;;19.08;;
23722;SDS011;12042;52.136;5.584;2022-10-17T19:48:50;21.50;;;19.40;;
23722;SDS011;12042;52.136;5.584;2022-10-17T19:51:17;21.15;;;18.77;;
23722;SDS011;12042;52.136;5.584;2022-10-17T19:53:44;24.15;;;19.00;;
23722;SDS011;12042;52.136;5.584;2022-10-17T19:56:10;26.98;;;22.10;;
23722;SDS011;12042;52.136;5.584;2022-10-17T19:58:36;24.60;;;21.73;;
23722;SDS011;12042;52.136;5.584;2022-10-17T20:01:09;31.20;;;23.45;;
23722;SDS011;12042;52.136;5.584;2022-10-17T20:03:35;28.73;;;24.65;;
23722;SDS011;12042;52.136;5.584;2022-10-17T20:06:01;32.05;;;24.67;;
23722;SDS011;12042;52.136;5.584;2022-10-17T20:08:27;32.42;;;25.90;;
23722;SDS011;12042;52.136;5.584;2022-10-17T20:10:52;31.38;;;24.15;;
23722;SDS011;12042;52.136;5.584;2022-10-17T20:13:18;29.50;;;24.92;;
23722;SDS011;12042;52.136;5.584;2022-10-17T20:15:52;33.30;;;25.35;;
23722;SDS011;12042;52.136;5.584;2022-10-17T20:18:21;31.98;;;26.98;;
23722;SDS011;12042;52.136;5.584;2022-10-17T20:20:47;29.70;;;25.10;;
23722;SDS011;12042;52.136;5.584;2022-10-17T20:23:13;32.00;;;26.23;;
23722;SDS011;12042;52.136;5.584;2022-10-17T20:25:38;31.27;;;26.20;;
23722;SDS011;12042;52.136;5.584;2022-10-17T20:28:04;33.80;;;27.63;;
23722;SDS011;12042;52.136;5.584;2022-10-17T20:30:29;36.00;;;27.02;;
23722;SDS011;12042;52.136;5.584;2022-10-17T20:32:55;35.90;;;27.77;;
23722;SDS011;12042;52.136;5.584;2022-10-17T20:35:20;42.95;;;30.23;;
23722;SDS011;12042;52.136;5.584;2022-10-17T20:37:46;39.03;;;30.00;;
23722;SDS011;12042;52.136;5.584;2022-10-17T20:40:12;39.78;;;29.45;;
23722;SDS011;12042;52.136;5.584;2022-10-17T20:42:37;41.53;;;30.40;;
23722;SDS011;12042;52.136;5.584;2022-10-17T20:45:03;38.53;;;29.67;;
